sensor_id;sensor_type;location;lat;lon;timestamp;P1;durP1;ratioP1;P2;durP2;ratioP2
31746;SDS011;18319;48.974;8.462;2023-04-15T00:01:00;1.93;;;0.93;;
31746;SDS011;18319;48.974;8.462;2023-04-15T00:03:26;2.03;;;1.10;;
31746;SDS011;18319;48.974;8.462;2023-04-15T00:05:53;2.50;;;0.90;;
31746;SDS011;18319;48.974;8.462;2023-04-15T00:08:20;0.97;;;0.83;;
31746;SDS011;18319;48.974;8.462;2023-04-15T00:10:47;0.60;;;0.60;;
31746;SDS011;18319;48.974;8.462;2023-04-15T00:13:14;1.27;;;1.17;;
31746;SDS011;18319;48.974;8.462;2023-04-15T00:15:41;1.67;;;1.57;;
31746;SDS011;18319;48.974;8.462;2023-04-15T00:18:10;2.97;;;1.10;;
31746;SDS011;18319;48.974;8.462;2023-04-15T00:20:36;2.53;;;1.30;;
31746;SDS011;18319;48.974;8.462;2023-04-15T00:23:03;1.50;;;1.00;;
31746;SDS011;18319;48.974;8.462;2023-04-15T00:25:30;2.27;;;1.30;;
31746;SDS011;18319;48.974;8.462;2023-04-15T00:27:57;1.50;;;1.40;;
31746;SDS011;18319;48.974;8.462;2023-04-15T00:30:23;2.70;;;1.50;;
31746;SDS011;18319;48.974;8.462;2023-04-15T00:32:50;1.60;;;1.00;;
31746;SDS011;18319;48.974;8.462;2023-04-15T00:35:18;1.43;;;1.33;;
31746;SDS011;18319;48.974;8.462;2023-04-15T00:37:45;2.33;;;1.30;;
31746;SDS011;18319;48.974;8.462;2023-04-15T00:40:12;2.30;;;1.50;;
31746;SDS011;18319;48.974;8.462;2023-04-15T00:42:42;1.93;;;1.30;;
31746;SDS011;18319;48.974;8.462;2023-04-15T00:45:09;4.43;;;1.50;;
31746;SDS011;18319;48.974;8.462;2023-04-15T00:47:36;1.43;;;1.00;;
31746;SDS011;18319;48.974;8.462;2023-04-15T00:50:06;1.00;;;1.00;;
31746;SDS011;18319;48.974;8.462;2023-04-15T00:52:35;1.93;;;1.30;;
31746;SDS011;18319;48.974;8.462;2023-04-15T00:55:03;2.00;;;1.50;;
31746;SDS011;18319;48.974;8.462;2023-04-15T00:57:30;1.90;;;1.37;;
31746;SDS011;18319;48.974;8.462;2023-04-15T00:59:57;2.23;;;1.60;;
31746;SDS011;18319;48.974;8.462;2023-04-15T01:02:25;2.33;;;1.57;;
31746;SDS011;18319;48.974;8.462;2023-04-15T01:04:52;2.63;;;1.30;;
31746;SDS011;18319;48.974;8.462;2023-04-15T01:07:18;4.10;;;1.63;;
31746;SDS011;18319;48.974;8.462;2023-04-15T01:09:47;2.20;;;1.10;;
31746;SDS011;18319;48.974;8.462;2023-04-15T01:12:13;2.00;;;1.20;;
31746;SDS011;18319;48.974;8.462;2023-04-15T01:14:42;2.33;;;1.70;;
31746;SDS011;18319;48.974;8.462;2023-04-15T01:17:09;2.77;;;1.40;;
31746;SDS011;18319;48.974;8.462;2023-04-15T01:19:36;3.13;;;1.13;;
31746;SDS011;18319;48.974;8.462;2023-04-15T01:22:03;1.20;;;1.10;;
31746;SDS011;18319;48.974;8.462;2023-04-15T01:24:30;1.20;;;1.10;;
31746;SDS011;18319;48.974;8.462;2023-04-15T01:29:29;1.47;;;1.27;;
31746;SDS011;18319;48.974;8.462;2023-04-15T01:31:56;2.30;;;1.30;;
31746;SDS011;18319;48.974;8.462;2023-04-15T01:34:23;3.67;;;1.50;;
31746;SDS011;18319;48.974;8.462;2023-04-15T01:36:50;1.63;;;1.50;;
31746;SDS011;18319;48.974;8.462;2023-04-15T01:39:17;2.60;;;1.20;;
31746;SDS011;18319;48.974;8.462;2023-04-15T01:41:43;1.03;;;0.93;;
31746;SDS011;18319;48.974;8.462;2023-04-15T01:44:10;1.87;;;1.40;;
31746;SDS011;18319;48.974;8.462;2023-04-15T01:46:38;3.40;;;1.40;;
31746;SDS011;18319;48.974;8.462;2023-04-15T01:49:05;1.30;;;1.20;;
31746;SDS011;18319;48.974;8.462;2023-04-15T01:51:32;2.93;;;1.10;;
31746;SDS011;18319;48.974;8.462;2023-04-15T01:53:59;2.13;;;1.40;;
31746;SDS011;18319;48.974;8.462;2023-04-15T01:56:26;2.00;;;1.27;;
31746;SDS011;18319;48.974;8.462;2023-04-15T01:58:52;2.97;;;1.40;;
31746;SDS011;18319;48.974;8.462;2023-04-15T02:01:19;5.43;;;1.60;;
31746;SDS011;18319;48.974;8.462;2023-04-15T02:03:47;2.77;;;1.30;;
31746;SDS011;18319;48.974;8.462;2023-04-15T02:06:14;1.50;;;1.40;;
31746;SDS011;18319;48.974;8.462;2023-04-15T02:08:42;2.03;;;1.40;;
31746;SDS011;18319;48.974;8.462;2023-04-15T02:11:09;1.83;;;1.43;;
31746;SDS011;18319;48.974;8.462;2023-04-15T02:13:35;1.30;;;1.13;;
31746;SDS011;18319;48.974;8.462;2023-04-15T02:16:02;3.50;;;1.17;;
31746;SDS011;18319;48.974;8.462;2023-04-15T02:18:30;1.37;;;1.20;;
31746;SDS011;18319;48.974;8.462;2023-04-15T02:20:58;2.60;;;1.10;;
31746;SDS011;18319;48.974;8.462;2023-04-15T02:23:25;3.93;;;1.17;;
31746;SDS011;18319;48.974;8.462;2023-04-15T02:25:52;2.53;;;2.27;;
31746;SDS011;18319;48.974;8.462;2023-04-15T02:28:18;1.30;;;1.20;;
31746;SDS011;18319;48.974;8.462;2023-04-15T02:30:46;2.67;;;1.50;;
31746;SDS011;18319;48.974;8.462;2023-04-15T02:33:14;3.17;;;1.40;;
31746;SDS011;18319;48.974;8.462;2023-04-15T02:35:41;4.23;;;1.53;;
31746;SDS011;18319;48.974;8.462;2023-04-15T02:38:10;1.20;;;1.10;;
31746;SDS011;18319;48.974;8.462;2023-04-15T02:40:38;3.07;;;1.10;;
31746;SDS011;18319;48.974;8.462;2023-04-15T02:43:04;3.20;;;1.30;;
31746;SDS011;18319;48.974;8.462;2023-04-15T02:45:31;2.37;;;2.03;;
31746;SDS011;18319;48.974;8.462;2023-04-15T02:47:58;2.30;;;1.27;;
31746;SDS011;18319;48.974;8.462;2023-04-15T02:50:29;3.90;;;1.50;;
31746;SDS011;18319;48.974;8.462;2023-04-15T02:52:56;2.10;;;1.17;;
31746;SDS011;18319;48.974;8.462;2023-04-15T02:55:26;1.40;;;1.20;;
31746;SDS011;18319;48.974;8.462;2023-04-15T02:57:53;6.30;;;1.60;;
31746;SDS011;18319;48.974;8.462;2023-04-15T03:00:20;3.37;;;1.20;;
31746;SDS011;18319;48.974;8.462;2023-04-15T03:02:49;2.43;;;1.23;;
31746;SDS011;18319;48.974;8.462;2023-04-15T03:05:20;3.30;;;1.70;;
31746;SDS011;18319;48.974;8.462;2023-04-15T03:07:48;2.47;;;1.27;;
31746;SDS011;18319;48.974;8.462;2023-04-15T03:10:15;2.30;;;1.23;;
31746;SDS011;18319;48.974;8.462;2023-04-15T03:12:43;2.03;;;1.20;;
31746;SDS011;18319;48.974;8.462;2023-04-15T03:15:10;1.40;;;1.30;;
31746;SDS011;18319;48.974;8.462;2023-04-15T03:17:37;2.47;;;1.40;;
31746;SDS011;18319;48.974;8.462;2023-04-15T03:20:04;2.40;;;1.73;;
31746;SDS011;18319;48.974;8.462;2023-04-15T03:22:32;3.90;;;1.40;;
31746;SDS011;18319;48.974;8.462;2023-04-15T03:24:59;1.33;;;1.27;;
31746;SDS011;18319;48.974;8.462;2023-04-15T03:27:26;3.67;;;1.67;;
31746;SDS011;18319;48.974;8.462;2023-04-15T03:29:54;1.87;;;0.90;;
31746;SDS011;18319;48.974;8.462;2023-04-15T03:32:21;1.63;;;1.30;;
31746;SDS011;18319;48.974;8.462;2023-04-15T03:34:48;1.60;;;1.40;;
31746;SDS011;18319;48.974;8.462;2023-04-15T03:37:14;1.43;;;1.17;;
31746;SDS011;18319;48.974;8.462;2023-04-15T03:39:41;2.00;;;1.20;;
31746;SDS011;18319;48.974;8.462;2023-04-15T03:42:08;1.50;;;1.40;;
31746;SDS011;18319;48.974;8.462;2023-04-15T03:44:35;4.03;;;1.40;;
31746;SDS011;18319;48.974;8.462;2023-04-15T03:47:03;4.43;;;1.40;;
31746;SDS011;18319;48.974;8.462;2023-04-15T03:49:30;3.70;;;0.93;;
31746;SDS011;18319;48.974;8.462;2023-04-15T03:51:57;1.43;;;1.13;;
31746;SDS011;18319;48.974;8.462;2023-04-15T03:54:24;3.33;;;1.30;;
31746;SDS011;18319;48.974;8.462;2023-04-15T03:56:51;2.53;;;1.33;;
31746;SDS011;18319;48.974;8.462;2023-04-15T03:59:18;1.70;;;1.20;;
31746;SDS011;18319;48.974;8.462;2023-04-15T04:01:44;3.17;;;1.70;;
31746;SDS011;18319;48.974;8.462;2023-04-15T04:04:12;1.67;;;1.30;;
31746;SDS011;18319;48.974;8.462;2023-04-15T04:06:39;2.13;;;1.30;;
31746;SDS011;18319;48.974;8.462;2023-04-15T04:09:06;2.03;;;1.33;;
31746;SDS011;18319;48.974;8.462;2023-04-15T04:11:33;2.73;;;1.37;;
31746;SDS011;18319;48.974;8.462;2023-04-15T04:13:59;1.20;;;1.10;;
31746;SDS011;18319;48.974;8.462;2023-04-15T04:16:26;1.23;;;1.20;;
31746;SDS011;18319;48.974;8.462;2023-04-15T04:18:53;2.30;;;1.20;;
31746;SDS011;18319;48.974;8.462;2023-04-15T04:21:21;1.30;;;1.20;;
31746;SDS011;18319;48.974;8.462;2023-04-15T04:23:48;1.57;;;1.10;;
31746;SDS011;18319;48.974;8.462;2023-04-15T04:26:14;3.17;;;1.43;;
31746;SDS011;18319;48.974;8.462;2023-04-15T04:28:41;2.80;;;1.40;;
31746;SDS011;18319;48.974;8.462;2023-04-15T04:31:08;2.30;;;1.33;;
31746;SDS011;18319;48.974;8.462;2023-04-15T04:33:35;1.67;;;1.00;;
31746;SDS011;18319;48.974;8.462;2023-04-15T04:36:01;1.30;;;1.13;;
31746;SDS011;18319;48.974;8.462;2023-04-15T04:38:30;2.57;;;1.17;;
31746;SDS011;18319;48.974;8.462;2023-04-15T04:40:57;3.83;;;1.37;;
31746;SDS011;18319;48.974;8.462;2023-04-15T04:43:23;5.13;;;1.80;;
31746;SDS011;18319;48.974;8.462;2023-04-15T04:45:51;1.40;;;1.30;;
31746;SDS011;18319;48.974;8.462;2023-04-15T04:48:17;3.80;;;1.67;;
31746;SDS011;18319;48.974;8.462;2023-04-15T04:50:44;4.17;;;2.30;;
31746;SDS011;18319;48.974;8.462;2023-04-15T04:53:12;2.87;;;1.30;;
31746;SDS011;18319;48.974;8.462;2023-04-15T04:55:40;3.67;;;1.20;;
31746;SDS011;18319;48.974;8.462;2023-04-15T04:58:06;1.37;;;1.17;;
31746;SDS011;18319;48.974;8.462;2023-04-15T05:00:33;3.07;;;1.50;;
31746;SDS011;18319;48.974;8.462;2023-04-15T05:03:01;1.50;;;1.40;;
31746;SDS011;18319;48.974;8.462;2023-04-15T05:05:28;2.20;;;1.57;;
31746;SDS011;18319;48.974;8.462;2023-04-15T05:07:55;3.80;;;1.20;;
31746;SDS011;18319;48.974;8.462;2023-04-15T05:10:22;2.00;;;1.20;;
31746;SDS011;18319;48.974;8.462;2023-04-15T05:12:50;4.27;;;1.37;;
31746;SDS011;18319;48.974;8.462;2023-04-15T05:15:17;1.63;;;1.40;;
31746;SDS011;18319;48.974;8.462;2023-04-15T05:17:44;1.73;;;1.20;;
31746;SDS011;18319;48.974;8.462;2023-04-15T05:20:11;1.10;;;1.00;;
31746;SDS011;18319;48.974;8.462;2023-04-15T05:22:38;1.17;;;1.07;;
31746;SDS011;18319;48.974;8.462;2023-04-15T05:25:05;3.17;;;1.40;;
31746;SDS011;18319;48.974;8.462;2023-04-15T05:27:32;1.50;;;1.40;;
31746;SDS011;18319;48.974;8.462;2023-04-15T05:30:00;1.60;;;1.50;;
31746;SDS011;18319;48.974;8.462;2023-04-15T05:32:27;1.57;;;1.17;;
31746;SDS011;18319;48.974;8.462;2023-04-15T05:34:54;3.27;;;1.70;;
31746;SDS011;18319;48.974;8.462;2023-04-15T05:37:21;1.53;;;1.27;;
31746;SDS011;18319;48.974;8.462;2023-04-15T05:39:47;2.83;;;1.30;;
31746;SDS011;18319;48.974;8.462;2023-04-15T05:42:14;1.53;;;1.43;;
31746;SDS011;18319;48.974;8.462;2023-04-15T05:44:41;1.30;;;1.20;;
31746;SDS011;18319;48.974;8.462;2023-04-15T05:47:09;2.40;;;1.30;;
31746;SDS011;18319;48.974;8.462;2023-04-15T05:49:36;2.17;;;1.10;;
31746;SDS011;18319;48.974;8.462;2023-04-15T05:52:03;2.07;;;1.40;;
31746;SDS011;18319;48.974;8.462;2023-04-15T05:54:29;3.40;;;1.93;;
31746;SDS011;18319;48.974;8.462;2023-04-15T05:56:56;1.40;;;1.30;;
31746;SDS011;18319;48.974;8.462;2023-04-15T05:59:23;1.97;;;1.70;;
31746;SDS011;18319;48.974;8.462;2023-04-15T06:01:51;3.27;;;1.13;;
31746;SDS011;18319;48.974;8.462;2023-04-15T06:04:19;1.97;;;1.30;;
31746;SDS011;18319;48.974;8.462;2023-04-15T06:06:45;1.53;;;1.43;;
31746;SDS011;18319;48.974;8.462;2023-04-15T06:09:12;1.67;;;1.50;;
31746;SDS011;18319;48.974;8.462;2023-04-15T06:11:39;2.43;;;1.40;;
31746;SDS011;18319;48.974;8.462;2023-04-15T06:14:06;2.73;;;1.70;;
31746;SDS011;18319;48.974;8.462;2023-04-15T06:16:33;1.50;;;1.27;;
31746;SDS011;18319;48.974;8.462;2023-04-15T06:19:00;3.40;;;1.43;;
31746;SDS011;18319;48.974;8.462;2023-04-15T06:21:28;1.63;;;1.40;;
31746;SDS011;18319;48.974;8.462;2023-04-15T06:23:55;2.80;;;1.30;;
31746;SDS011;18319;48.974;8.462;2023-04-15T06:26:23;2.77;;;1.17;;
31746;SDS011;18319;48.974;8.462;2023-04-15T06:28:50;2.03;;;1.47;;
31746;SDS011;18319;48.974;8.462;2023-04-15T06:31:17;1.60;;;1.40;;
31746;SDS011;18319;48.974;8.462;2023-04-15T06:33:44;2.07;;;1.37;;
31746;SDS011;18319;48.974;8.462;2023-04-15T06:36:10;1.73;;;1.60;;
31746;SDS011;18319;48.974;8.462;2023-04-15T06:38:38;3.63;;;1.57;;
31746;SDS011;18319;48.974;8.462;2023-04-15T06:41:05;2.03;;;1.63;;
31746;SDS011;18319;48.974;8.462;2023-04-15T06:43:32;1.63;;;1.50;;
31746;SDS011;18319;48.974;8.462;2023-04-15T06:45:59;2.63;;;1.37;;
31746;SDS011;18319;48.974;8.462;2023-04-15T06:48:26;1.73;;;1.43;;
31746;SDS011;18319;48.974;8.462;2023-04-15T06:50:53;1.97;;;1.20;;
31746;SDS011;18319;48.974;8.462;2023-04-15T06:53:20;1.20;;;1.00;;
31746;SDS011;18319;48.974;8.462;2023-04-15T06:55:48;1.67;;;1.47;;
31746;SDS011;18319;48.974;8.462;2023-04-15T06:58:15;5.50;;;2.20;;
31746;SDS011;18319;48.974;8.462;2023-04-15T07:00:42;2.83;;;1.83;;
31746;SDS011;18319;48.974;8.462;2023-04-15T07:03:11;2.27;;;2.00;;
31746;SDS011;18319;48.974;8.462;2023-04-15T07:05:39;2.63;;;2.27;;
31746;SDS011;18319;48.974;8.462;2023-04-15T07:08:06;2.40;;;2.20;;
31746;SDS011;18319;48.974;8.462;2023-04-15T07:10:33;4.20;;;2.67;;
31746;SDS011;18319;48.974;8.462;2023-04-15T07:13:01;2.30;;;2.20;;
31746;SDS011;18319;48.974;8.462;2023-04-15T07:15:28;5.00;;;2.40;;
31746;SDS011;18319;48.974;8.462;2023-04-15T07:17:55;3.63;;;2.20;;
31746;SDS011;18319;48.974;8.462;2023-04-15T07:20:22;2.40;;;2.20;;
31746;SDS011;18319;48.974;8.462;2023-04-15T07:22:48;2.87;;;2.57;;
31746;SDS011;18319;48.974;8.462;2023-04-15T07:25:15;5.07;;;2.40;;
31746;SDS011;18319;48.974;8.462;2023-04-15T07:30:12;3.03;;;2.70;;
31746;SDS011;18319;48.974;8.462;2023-04-15T07:32:39;3.08;;;2.50;;
31746;SDS011;18319;48.974;8.462;2023-04-15T07:35:07;3.60;;;2.80;;
31746;SDS011;18319;48.974;8.462;2023-04-15T07:37:34;4.65;;;2.38;;
31746;SDS011;18319;48.974;8.462;2023-04-15T07:40:01;2.63;;;2.42;;
31746;SDS011;18319;48.974;8.462;2023-04-15T07:42:29;3.53;;;3.23;;
31746;SDS011;18319;48.974;8.462;2023-04-15T07:44:55;3.92;;;2.70;;
31746;SDS011;18319;48.974;8.462;2023-04-15T07:47:24;4.22;;;2.22;;
31746;SDS011;18319;48.974;8.462;2023-04-15T07:49:51;6.00;;;2.40;;
31746;SDS011;18319;48.974;8.462;2023-04-15T07:52:18;2.92;;;2.10;;
31746;SDS011;18319;48.974;8.462;2023-04-15T07:54:45;5.72;;;2.58;;
31746;SDS011;18319;48.974;8.462;2023-04-15T07:57:11;2.85;;;2.30;;
31746;SDS011;18319;48.974;8.462;2023-04-15T07:59:38;1.90;;;1.80;;
31746;SDS011;18319;48.974;8.462;2023-04-15T08:02:05;3.30;;;1.67;;
31746;SDS011;18319;48.974;8.462;2023-04-15T08:04:34;3.90;;;1.95;;
31746;SDS011;18319;48.974;8.462;2023-04-15T08:07:01;2.00;;;1.85;;
31746;SDS011;18319;48.974;8.462;2023-04-15T08:09:28;2.80;;;1.90;;
31746;SDS011;18319;48.974;8.462;2023-04-15T08:11:55;5.35;;;2.40;;
31746;SDS011;18319;48.974;8.462;2023-04-15T08:14:23;4.10;;;2.00;;
31746;SDS011;18319;48.974;8.462;2023-04-15T08:16:49;2.53;;;2.05;;
31746;SDS011;18319;48.974;8.462;2023-04-15T08:19:16;5.05;;;2.42;;
31746;SDS011;18319;48.974;8.462;2023-04-15T08:21:44;2.80;;;2.50;;
31746;SDS011;18319;48.974;8.462;2023-04-15T08:24:11;4.70;;;2.33;;
31746;SDS011;18319;48.974;8.462;2023-04-15T08:26:38;6.03;;;3.08;;
31746;SDS011;18319;48.974;8.462;2023-04-15T08:29:06;3.42;;;2.65;;
31746;SDS011;18319;48.974;8.462;2023-04-15T08:31:33;2.35;;;2.05;;
31746;SDS011;18319;48.974;8.462;2023-04-15T08:33:59;2.53;;;2.08;;
31746;SDS011;18319;48.974;8.462;2023-04-15T08:36:26;2.55;;;2.17;;
31746;SDS011;18319;48.974;8.462;2023-04-15T08:38:54;2.20;;;1.90;;
31746;SDS011;18319;48.974;8.462;2023-04-15T08:41:22;3.35;;;2.10;;
31746;SDS011;18319;48.974;8.462;2023-04-15T08:43:53;3.33;;;2.38;;
31746;SDS011;18319;48.974;8.462;2023-04-15T08:46:23;4.35;;;2.40;;
31746;SDS011;18319;48.974;8.462;2023-04-15T08:48:51;2.00;;;1.83;;
31746;SDS011;18319;48.974;8.462;2023-04-15T08:51:21;2.45;;;2.25;;
31746;SDS011;18319;48.974;8.462;2023-04-15T08:53:48;4.55;;;2.63;;
31746;SDS011;18319;48.974;8.462;2023-04-15T08:56:18;6.38;;;2.08;;
31746;SDS011;18319;48.974;8.462;2023-04-15T08:58:48;2.17;;;2.05;;
31746;SDS011;18319;48.974;8.462;2023-04-15T09:01:16;3.85;;;1.92;;
31746;SDS011;18319;48.974;8.462;2023-04-15T09:03:43;1.83;;;1.73;;
31746;SDS011;18319;48.974;8.462;2023-04-15T09:06:11;2.65;;;1.80;;
31746;SDS011;18319;48.974;8.462;2023-04-15T09:08:38;3.63;;;2.00;;
31746;SDS011;18319;48.974;8.462;2023-04-15T09:11:05;1.80;;;1.70;;
31746;SDS011;18319;48.974;8.462;2023-04-15T09:13:33;5.68;;;2.20;;
31746;SDS011;18319;48.974;8.462;2023-04-15T09:16:00;2.40;;;1.80;;
31746;SDS011;18319;48.974;8.462;2023-04-15T09:18:28;2.33;;;2.13;;
31746;SDS011;18319;48.974;8.462;2023-04-15T09:21:02;3.83;;;2.25;;
31746;SDS011;18319;48.974;8.462;2023-04-15T09:23:30;2.83;;;1.90;;
31746;SDS011;18319;48.974;8.462;2023-04-15T09:25:57;4.07;;;2.30;;
31746;SDS011;18319;48.974;8.462;2023-04-15T09:28:24;3.40;;;2.10;;
31746;SDS011;18319;48.974;8.462;2023-04-15T09:30:55;2.97;;;2.28;;
31746;SDS011;18319;48.974;8.462;2023-04-15T09:33:23;2.92;;;2.17;;
31746;SDS011;18319;48.974;8.462;2023-04-15T09:35:57;2.30;;;2.10;;
31746;SDS011;18319;48.974;8.462;2023-04-15T09:38:26;3.50;;;2.15;;
31746;SDS011;18319;48.974;8.462;2023-04-15T09:40:53;8.68;;;2.45;;
31746;SDS011;18319;48.974;8.462;2023-04-15T09:43:20;3.53;;;1.80;;
31746;SDS011;18319;48.974;8.462;2023-04-15T09:45:47;5.20;;;1.83;;
31746;SDS011;18319;48.974;8.462;2023-04-15T09:48:17;2.80;;;1.77;;
31746;SDS011;18319;48.974;8.462;2023-04-15T09:50:46;4.65;;;2.35;;
31746;SDS011;18319;48.974;8.462;2023-04-15T09:53:17;3.08;;;1.90;;
31746;SDS011;18319;48.974;8.462;2023-04-15T09:55:45;2.30;;;1.70;;
31746;SDS011;18319;48.974;8.462;2023-04-15T09:58:19;2.63;;;2.00;;
31746;SDS011;18319;48.974;8.462;2023-04-15T10:00:46;2.67;;;2.35;;
31746;SDS011;18319;48.974;8.462;2023-04-15T10:03:15;1.80;;;1.70;;
31746;SDS011;18319;48.974;8.462;2023-04-15T10:05:46;2.85;;;2.13;;
31746;SDS011;18319;48.974;8.462;2023-04-15T10:08:15;3.08;;;2.20;;
31746;SDS011;18319;48.974;8.462;2023-04-15T10:10:44;5.15;;;2.22;;
31746;SDS011;18319;48.974;8.462;2023-04-15T10:13:12;3.20;;;1.90;;
31746;SDS011;18319;48.974;8.462;2023-04-15T10:15:40;2.85;;;1.88;;
31746;SDS011;18319;48.974;8.462;2023-04-15T10:18:10;2.33;;;2.13;;
31746;SDS011;18319;48.974;8.462;2023-04-15T10:20:41;2.83;;;2.10;;
31746;SDS011;18319;48.974;8.462;2023-04-15T10:23:09;2.75;;;2.50;;
31746;SDS011;18319;48.974;8.462;2023-04-15T10:25:37;2.78;;;2.58;;
31746;SDS011;18319;48.974;8.462;2023-04-15T10:28:05;3.05;;;2.22;;
31746;SDS011;18319;48.974;8.462;2023-04-15T10:30:33;4.13;;;2.67;;
31746;SDS011;18319;48.974;8.462;2023-04-15T10:33:00;3.10;;;2.50;;
31746;SDS011;18319;48.974;8.462;2023-04-15T10:35:28;3.17;;;2.85;;
31746;SDS011;18319;48.974;8.462;2023-04-15T10:37:57;5.20;;;2.83;;
31746;SDS011;18319;48.974;8.462;2023-04-15T10:40:25;3.55;;;2.17;;
31746;SDS011;18319;48.974;8.462;2023-04-15T10:42:53;4.57;;;2.47;;
31746;SDS011;18319;48.974;8.462;2023-04-15T10:45:21;4.03;;;2.00;;
31746;SDS011;18319;48.974;8.462;2023-04-15T10:47:51;3.13;;;2.30;;
31746;SDS011;18319;48.974;8.462;2023-04-15T10:50:20;5.80;;;2.53;;
31746;SDS011;18319;48.974;8.462;2023-04-15T10:52:49;4.70;;;2.00;;
31746;SDS011;18319;48.974;8.462;2023-04-15T10:55:19;4.47;;;2.47;;
31746;SDS011;18319;48.974;8.462;2023-04-15T10:57:50;2.78;;;2.13;;
31746;SDS011;18319;48.974;8.462;2023-04-15T11:00:19;5.60;;;2.60;;
31746;SDS011;18319;48.974;8.462;2023-04-15T11:02:51;2.95;;;2.22;;
31746;SDS011;18319;48.974;8.462;2023-04-15T11:05:19;3.08;;;2.78;;
31746;SDS011;18319;48.974;8.462;2023-04-15T11:07:48;3.35;;;2.60;;
31746;SDS011;18319;48.974;8.462;2023-04-15T11:13:25;2.45;;;2.25;;
31746;SDS011;18319;48.974;8.462;2023-04-15T11:16:02;4.60;;;2.85;;
31746;SDS011;18319;48.974;8.462;2023-04-15T11:18:29;2.53;;;2.33;;
31746;SDS011;18319;48.974;8.462;2023-04-15T11:20:58;2.55;;;2.15;;
31746;SDS011;18319;48.974;8.462;2023-04-15T11:23:28;3.28;;;2.60;;
31746;SDS011;18319;48.974;8.462;2023-04-15T11:25:59;3.28;;;2.47;;
31746;SDS011;18319;48.974;8.462;2023-04-15T11:28:28;4.90;;;2.80;;
31746;SDS011;18319;48.974;8.462;2023-04-15T11:30:56;1.90;;;1.80;;
31746;SDS011;18319;48.974;8.462;2023-04-15T11:33:23;3.70;;;2.25;;
31746;SDS011;18319;48.974;8.462;2023-04-15T11:35:51;2.25;;;1.52;;
31746;SDS011;18319;48.974;8.462;2023-04-15T11:38:19;3.95;;;2.33;;
31746;SDS011;18319;48.974;8.462;2023-04-15T11:40:46;2.40;;;2.08;;
31746;SDS011;18319;48.974;8.462;2023-04-15T11:43:15;3.13;;;1.77;;
31746;SDS011;18319;48.974;8.462;2023-04-15T11:45:48;3.25;;;1.88;;
31746;SDS011;18319;48.974;8.462;2023-04-15T11:48:17;2.15;;;1.65;;
31746;SDS011;18319;48.974;8.462;2023-04-15T11:50:45;2.00;;;1.58;;
31746;SDS011;18319;48.974;8.462;2023-04-15T11:53:18;3.10;;;1.75;;
31746;SDS011;18319;48.974;8.462;2023-04-15T11:55:46;3.90;;;2.67;;
31746;SDS011;18319;48.974;8.462;2023-04-15T11:58:15;3.78;;;1.52;;
31746;SDS011;18319;48.974;8.462;2023-04-15T12:00:47;4.05;;;1.98;;
31746;SDS011;18319;48.974;8.462;2023-04-15T12:03:17;3.30;;;2.25;;
31746;SDS011;18319;48.974;8.462;2023-04-15T12:06:02;3.15;;;2.15;;
31746;SDS011;18319;48.974;8.462;2023-04-15T12:11:27;4.65;;;2.00;;
31746;SDS011;18319;48.974;8.462;2023-04-15T12:14:03;2.17;;;1.83;;
31746;SDS011;18319;48.974;8.462;2023-04-15T12:16:32;2.65;;;1.83;;
31746;SDS011;18319;48.974;8.462;2023-04-15T12:19:03;4.38;;;2.17;;
31746;SDS011;18319;48.974;8.462;2023-04-15T12:21:35;3.72;;;2.20;;
31746;SDS011;18319;48.974;8.462;2023-04-15T12:24:03;2.58;;;1.90;;
31746;SDS011;18319;48.974;8.462;2023-04-15T12:26:33;4.45;;;2.05;;
31746;SDS011;18319;48.974;8.462;2023-04-15T12:29:04;3.35;;;1.70;;
31746;SDS011;18319;48.974;8.462;2023-04-15T12:31:32;3.03;;;1.70;;
31746;SDS011;18319;48.974;8.462;2023-04-15T12:33:59;2.90;;;2.17;;
31746;SDS011;18319;48.974;8.462;2023-04-15T12:36:27;4.40;;;2.45;;
31746;SDS011;18319;48.974;8.462;2023-04-15T12:39:00;2.50;;;2.15;;
31746;SDS011;18319;48.974;8.462;2023-04-15T12:41:27;4.50;;;2.38;;
31746;SDS011;18319;48.974;8.462;2023-04-15T12:43:54;3.38;;;1.80;;
31746;SDS011;18319;48.974;8.462;2023-04-15T12:46:22;3.33;;;1.45;;
31746;SDS011;18319;48.974;8.462;2023-04-15T12:48:50;3.58;;;1.80;;
31746;SDS011;18319;48.974;8.462;2023-04-15T12:51:17;1.42;;;1.33;;
31746;SDS011;18319;48.974;8.462;2023-04-15T12:53:45;1.38;;;1.15;;
31746;SDS011;18319;48.974;8.462;2023-04-15T12:56:12;2.20;;;1.50;;
31746;SDS011;18319;48.974;8.462;2023-04-15T12:58:39;1.73;;;1.52;;
31746;SDS011;18319;48.974;8.462;2023-04-15T13:01:06;1.50;;;1.40;;
31746;SDS011;18319;48.974;8.462;2023-04-15T13:03:34;2.58;;;1.70;;
31746;SDS011;18319;48.974;8.462;2023-04-15T13:06:01;2.42;;;1.17;;
31746;SDS011;18319;48.974;8.462;2023-04-15T13:08:28;2.92;;;1.67;;
31746;SDS011;18319;48.974;8.462;2023-04-15T13:10:55;1.75;;;1.60;;
31746;SDS011;18319;48.974;8.462;2023-04-15T13:13:22;1.70;;;1.42;;
31746;SDS011;18319;48.974;8.462;2023-04-15T13:15:49;3.88;;;1.55;;
31746;SDS011;18319;48.974;8.462;2023-04-15T13:18:16;2.38;;;1.75;;
31746;SDS011;18319;48.974;8.462;2023-04-15T13:20:44;2.72;;;1.70;;
31746;SDS011;18319;48.974;8.462;2023-04-15T13:23:11;2.70;;;1.50;;
31746;SDS011;18319;48.974;8.462;2023-04-15T13:25:38;2.30;;;1.60;;
31746;SDS011;18319;48.974;8.462;2023-04-15T13:28:05;1.98;;;1.50;;
31746;SDS011;18319;48.974;8.462;2023-04-15T13:30:32;2.65;;;1.80;;
31746;SDS011;18319;48.974;8.462;2023-04-15T13:32:58;2.05;;;1.58;;
31746;SDS011;18319;48.974;8.462;2023-04-15T13:35:25;2.95;;;1.88;;
31746;SDS011;18319;48.974;8.462;2023-04-15T13:37:53;2.20;;;2.10;;
31746;SDS011;18319;48.974;8.462;2023-04-15T13:40:20;1.92;;;1.83;;
31746;SDS011;18319;48.974;8.462;2023-04-15T13:42:47;1.88;;;1.77;;
31746;SDS011;18319;48.974;8.462;2023-04-15T13:45:14;3.38;;;1.42;;
31746;SDS011;18319;48.974;8.462;2023-04-15T13:47:41;2.10;;;1.55;;
31746;SDS011;18319;48.974;8.462;2023-04-15T13:50:08;2.35;;;2.15;;
31746;SDS011;18319;48.974;8.462;2023-04-15T13:52:35;2.78;;;1.85;;
31746;SDS011;18319;48.974;8.462;2023-04-15T13:55:04;2.15;;;1.90;;
31746;SDS011;18319;48.974;8.462;2023-04-15T13:57:32;3.03;;;1.80;;
31746;SDS011;18319;48.974;8.462;2023-04-15T13:59:59;2.95;;;2.17;;
31746;SDS011;18319;48.974;8.462;2023-04-15T14:02:25;3.33;;;2.38;;
31746;SDS011;18319;48.974;8.462;2023-04-15T14:04:52;2.28;;;2.05;;
31746;SDS011;18319;48.974;8.462;2023-04-15T14:07:19;2.80;;;2.17;;
31746;SDS011;18319;48.974;8.462;2023-04-15T14:09:46;2.38;;;2.13;;
31746;SDS011;18319;48.974;8.462;2023-04-15T14:12:14;2.22;;;2.10;;
31746;SDS011;18319;48.974;8.462;2023-04-15T14:14:41;4.38;;;1.65;;
31746;SDS011;18319;48.974;8.462;2023-04-15T14:17:08;3.20;;;1.73;;
31746;SDS011;18319;48.974;8.462;2023-04-15T14:19:34;2.28;;;2.08;;
31746;SDS011;18319;48.974;8.462;2023-04-15T14:22:01;3.35;;;2.08;;
31746;SDS011;18319;48.974;8.462;2023-04-15T14:24:28;2.28;;;2.08;;
31746;SDS011;18319;48.974;8.462;2023-04-15T14:26:55;2.03;;;1.88;;
31746;SDS011;18319;48.974;8.462;2023-04-15T14:29:23;1.80;;;1.70;;
31746;SDS011;18319;48.974;8.462;2023-04-15T14:31:50;4.35;;;1.88;;
31746;SDS011;18319;48.974;8.462;2023-04-15T14:34:17;3.13;;;2.08;;
31746;SDS011;18319;48.974;8.462;2023-04-15T14:36:46;1.65;;;1.23;;
31746;SDS011;18319;48.974;8.462;2023-04-15T14:39:13;4.45;;;1.60;;
31746;SDS011;18319;48.974;8.462;2023-04-15T14:41:40;1.27;;;1.17;;
31746;SDS011;18319;48.974;8.462;2023-04-15T14:44:06;1.55;;;1.45;;
31746;SDS011;18319;48.974;8.462;2023-04-15T14:46:36;4.93;;;1.55;;
31746;SDS011;18319;48.974;8.462;2023-04-15T14:49:04;2.10;;;1.50;;
31746;SDS011;18319;48.974;8.462;2023-04-15T14:51:31;1.40;;;1.25;;
31746;SDS011;18319;48.974;8.462;2023-04-15T14:53:58;1.75;;;1.38;;
31746;SDS011;18319;48.974;8.462;2023-04-15T14:56:25;1.65;;;0.95;;
31746;SDS011;18319;48.974;8.462;2023-04-15T14:58:52;1.42;;;1.00;;
31746;SDS011;18319;48.974;8.462;2023-04-15T15:01:19;5.90;;;2.25;;